Time;durP1;ratioP1;P1;durP2;ratioP2;P2;SDS_P1;SDS_P2;PMS_P1;PMS_P2;Temp;Humidity;BMP_temperature;BMP_pressure;BME280_temperature;BME280_humidity;BME280_pressure;Samples;Min_cycle;Max_cycle;Signal;HPM_P1;HPM_P2
2021/03/14 00:01:23;;;;;;;3.60;1.40;;;23.00;44.30;;;;;;5028665;28;20060;-62
2021/03/14 00:03:48;;;;;;;3.67;1.48;;;23.00;44.40;;;;;;5028490;28;20025;-63
2021/03/14 00:06:14;;;;;;;3.65;1.27;;;23.00;44.40;;;;;;5026446;28;20045;-63
2021/03/14 00:08:40;;;;;;;3.50;1.20;;;23.00;44.30;;;;;;5025516;28;20038;-61
2021/03/14 00:11:08;;;;;;;3.58;1.25;;;22.90;44.30;;;;;;5040527;28;20021;-61
2021/03/14 00:13:38;;;;;;;3.58;1.33;;;22.90;44.30;;;;;;5029847;28;20812;-63
2021/03/14 00:16:07;;;;;;;3.60;1.40;;;22.90;44.30;;;;;;5029087;28;20028;-63
2021/03/14 00:18:36;;;;;;;2.17;1.07;;;22.80;44.30;;;;;;5028299;28;20412;-61
2021/03/14 00:21:03;;;;;;;3.45;1.50;;;22.80;44.30;;;;;;5030203;28;20033;-65
2021/03/14 00:23:29;;;;;;;3.90;1.35;;;22.80;44.40;;;;;;5013101;28;20045;-62
2021/03/14 00:25:56;;;;;;;3.55;1.30;;;22.80;44.40;;;;;;5029857;28;20186;-63
2021/03/14 00:28:23;;;;;;;3.55;1.40;;;22.80;44.40;;;;;;5030290;28;20108;-65
2021/03/14 00:30:50;;;;;;;5.53;1.70;;;22.70;44.30;;;;;;5028828;28;20110;-62
2021/03/14 00:33:16;;;;;;;3.42;1.45;;;22.70;44.40;;;;;;5023680;28;20029;-63
2021/03/14 00:35:41;;;;;;;4.85;1.42;;;22.70;44.40;;;;;;5011073;28;20065;-61
2021/03/14 00:38:07;;;;;;;4.00;1.25;;;22.70;44.40;;;;;;5030112;28;20441;-63
2021/03/14 00:40:33;;;;;;;4.20;1.38;;;22.70;44.40;;;;;;5017468;28;20034;-61
2021/03/14 00:43:00;;;;;;;3.78;1.38;;;22.70;44.40;;;;;;5028138;28;20192;-60
2021/03/14 00:45:27;;;;;;;4.85;1.30;;;22.60;44.40;;;;;;5028418;28;20037;-64
2021/03/14 00:47:53;;;;;;;3.63;1.42;;;22.60;44.40;;;;;;5028241;28;20116;-62
2021/03/14 00:50:19;;;;;;;3.28;1.38;;;22.60;44.40;;;;;;5029126;28;20124;-61
2021/03/14 00:52:44;;;;;;;2.63;1.10;;;22.60;44.50;;;;;;5028456;28;20110;-61
2021/03/14 00:55:10;;;;;;;4.40;1.40;;;22.60;44.50;;;;;;5028996;28;20099;-62
2021/03/14 00:57:36;;;;;;;2.88;1.10;;;22.50;44.50;;;;;;5030109;28;20384;-63
2021/03/14 01:00:04;;;;;;;2.67;1.20;;;22.50;44.50;;;;;;5029259;28;20083;-65
2021/03/14 01:02:30;;;;;;;3.28;1.20;;;22.50;44.50;;;;;;5026227;28;20037;-63
2021/03/14 01:04:55;;;;;;;3.22;1.30;;;22.50;44.50;;;;;;5029416;28;20037;-64
2021/03/14 01:07:21;;;;;;;2.80;1.10;;;22.50;45.10;;;;;;5028350;28;20526;-63
2021/03/14 01:09:47;;;;;;;2.45;1.00;;;22.40;44.50;;;;;;5029304;28;20030;-62
2021/03/14 01:12:12;;;;;;;3.92;1.17;;;22.40;44.50;;;;;;5028747;28;20017;-61
2021/03/14 01:14:38;;;;;;;3.05;1.30;;;22.40;44.60;;;;;;5020941;28;20216;-60
2021/03/14 01:17:04;;;;;;;2.92;1.08;;;22.40;44.60;;;;;;5027166;28;20112;-62
2021/03/14 01:19:30;;;;;;;2.42;1.10;;;22.40;44.60;;;;;;5029056;28;20144;-62
2021/03/14 01:21:57;;;;;;;2.85;1.20;;;22.30;44.60;;;;;;5028513;28;20116;-63
2021/03/14 01:24:22;;;;;;;3.38;1.15;;;22.30;44.60;;;;;;5027074;28;20025;-63
2021/03/14 01:26:48;;;;;;;2.97;1.02;;;22.30;44.60;;;;;;5028268;28;20033;-63
2021/03/14 01:29:14;;;;;;;2.20;1.02;;;22.30;44.60;;;;;;5020193;28;20025;-65
2021/03/14 01:31:39;;;;;;;2.08;1.10;;;22.30;44.70;;;;;;5025661;28;20072;-61
2021/03/14 01:34:05;;;;;;;3.25;1.10;;;22.30;44.70;;;;;;5022390;28;20567;-62
2021/03/14 01:36:30;;;;;;;2.17;1.10;;;22.30;44.80;;;;;;5037951;28;20483;-65
2021/03/14 01:38:56;;;;;;;2.60;1.20;;;22.20;44.70;;;;;;5027031;28;20030;-61
2021/03/14 01:41:22;;;;;;;1.98;1.00;;;22.20;44.70;;;;;;5027510;28;20029;-62
2021/03/14 01:43:47;;;;;;;3.50;1.10;;;22.20;44.70;;;;;;5026800;28;20037;-63
2021/03/14 01:46:14;;;;;;;3.20;1.08;;;22.20;44.80;;;;;;5027523;28;20136;-62
2021/03/14 01:48:40;;;;;;;4.70;1.10;;;22.20;44.80;;;;;;5027789;28;20080;-61
2021/03/14 01:51:06;;;;;;;2.20;0.90;;;22.20;44.80;;;;;;5027068;28;20033;-63
2021/03/14 01:53:33;;;;;;;2.03;1.00;;;22.10;44.80;;;;;;5027874;28;20128;-61
2021/03/14 01:55:59;;;;;;;2.80;1.08;;;22.10;44.80;;;;;;5025563;28;20075;-63
2021/03/14 01:58:25;;;;;;;2.13;0.90;;;22.10;44.80;;;;;;5028613;28;20424;-62
2021/03/14 02:00:53;;;;;;;1.90;1.00;;;22.10;44.80;;;;;;5030762;28;20048;-61
2021/03/14 02:03:23;;;;;;;2.67;1.10;;;22.10;44.90;;;;;;5034056;28;20068;-63
2021/03/14 02:05:50;;;;;;;3.03;1.20;;;22.10;44.80;;;;;;5027729;28;20068;-61
2021/03/14 02:08:17;;;;;;;3.08;1.02;;;22.10;44.80;;;;;;5025068;28;20036;-67
2021/03/14 02:10:44;;;;;;;2.40;1.00;;;22.00;44.80;;;;;;5030923;28;20342;-62
2021/03/14 02:13:18;;;;;;;1.60;0.98;;;22.00;45.40;;;;;;5028021;28;20099;-64
2021/03/14 02:16:02;;;;;;;2.20;1.00;;;22.00;44.90;;;;;;5026771;28;20188;-62
2021/03/14 02:18:29;;;;;;;2.13;0.90;;;22.00;44.90;;;;;;5041861;28;20068;-66
2021/03/14 02:20:56;;;;;;;2.28;0.93;;;22.00;44.90;;;;;;5028318;28;20025;-61
2021/03/14 02:23:43;;;;;;;2.60;1.35;;;22.00;44.90;;;;;;5028464;28;20064;-62
2021/03/14 02:26:11;;;;;;;2.45;0.88;;;22.00;44.90;;;;;;5026725;28;20029;-61
2021/03/14 02:28:38;;;;;;;2.42;1.10;;;21.90;44.90;;;;;;5027027;28;20029;-62
2021/03/14 02:31:05;;;;;;;3.72;1.52;;;21.90;44.90;;;;;;5026925;28;20484;-61
2021/03/14 02:33:34;;;;;;;1.83;0.80;;;21.90;44.90;;;;;;5010344;28;20113;-62
2021/03/14 02:36:00;;;;;;;2.38;1.00;;;21.90;44.90;;;;;;5026705;28;20092;-63
2021/03/14 02:38:26;;;;;;;2.63;1.00;;;21.90;44.90;;;;;;5016902;28;20104;-62
2021/03/14 02:40:55;;;;;;;2.70;1.05;;;21.90;45.00;;;;;;5027028;28;20033;-61
2021/03/14 02:43:24;;;;;;;2.10;0.90;;;21.80;45.00;;;;;;5033256;28;20167;-62
2021/03/14 02:45:52;;;;;;;1.90;1.00;;;21.80;45.00;;;;;;5027163;28;20408;-62
2021/03/14 02:48:18;;;;;;;2.03;1.00;;;21.80;45.00;;;;;;5026869;28;20109;-61
2021/03/14 02:50:46;;;;;;;1.77;0.77;;;21.80;45.00;;;;;;5025667;28;20033;-62
2021/03/14 02:53:12;;;;;;;1.98;0.90;;;21.80;45.00;;;;;;5015289;28;20026;-60
2021/03/14 02:55:38;;;;;;;2.92;1.08;;;21.80;45.00;;;;;;5024336;28;20035;-64
2021/03/14 02:58:05;;;;;;;2.97;1.20;;;21.80;45.10;;;;;;5015387;28;20030;-62
2021/03/14 03:00:32;;;;;;;2.20;0.93;;;21.70;45.00;;;;;;5020266;28;20053;-65
2021/03/14 03:02:59;;;;;;;1.83;1.00;;;21.70;45.00;;;;;;5021552;28;20038;-62
2021/03/14 03:05:25;;;;;;;2.47;0.90;;;21.70;45.00;;;;;;5015726;28;20033;-63
2021/03/14 03:07:54;;;;;;;1.80;0.90;;;21.70;45.00;;;;;;5018500;28;20388;-63
2021/03/14 03:10:21;;;;;;;2.22;1.00;;;21.70;45.00;;;;;;5027245;28;20448;-63
2021/03/14 03:12:49;;;;;;;2.30;0.80;;;21.70;45.00;;;;;;5027608;28;20091;-62
2021/03/14 03:15:19;;;;;;;1.90;0.95;;;21.70;45.00;;;;;;5025853;28;20029;-62
2021/03/14 03:17:48;;;;;;;2.05;0.80;;;21.60;45.00;;;;;;5027702;28;20047;-62
2021/03/14 03:20:15;;;;;;;1.98;0.98;;;21.70;45.10;;;;;;5023292;28;20107;-61
2021/03/14 03:22:41;;;;;;;2.40;1.10;;;21.60;45.10;;;;;;5027387;28;20045;-64
2021/03/14 03:25:09;;;;;;;2.30;1.05;;;21.60;45.10;;;;;;5027520;28;20469;-61
2021/03/14 03:27:35;;;;;;;2.67;1.05;;;21.60;45.10;;;;;;5031762;28;20064;-61
2021/03/14 03:30:07;;;;;;;1.65;1.00;;;21.60;45.10;;;;;;5023384;28;20033;-62
2021/03/14 03:32:33;;;;;;;2.28;1.00;;;21.60;45.10;;;;;;5029343;28;20065;-62
2021/03/14 03:34:58;;;;;;;2.25;0.88;;;21.60;45.10;;;;;;5030232;28;20116;-62
2021/03/14 03:37:24;;;;;;;2.15;0.90;;;21.60;45.10;;;;;;5030528;28;20095;-61
2021/03/14 03:39:50;;;;;;;3.10;1.00;;;21.60;45.20;;;;;;5031247;28;20047;-61
2021/03/14 03:42:21;;;;;;;1.25;0.70;;;21.60;45.20;;;;;;5030975;28;20052;-64
2021/03/14 03:44:47;;;;;;;1.33;0.73;;;21.50;45.10;;;;;;5027323;28;20083;-63
2021/03/14 03:47:14;;;;;;;2.00;0.93;;;21.50;45.10;;;;;;5029707;28;20520;-60
2021/03/14 03:49:46;;;;;;;3.33;0.90;;;21.50;45.20;;;;;;5030016;28;20127;-64
2021/03/14 03:52:15;;;;;;;1.83;0.80;;;21.50;45.20;;;;;;5029540;28;20677;-62
2021/03/14 03:54:41;;;;;;;1.77;0.85;;;21.50;45.20;;;;;;5027963;28;20814;-64
2021/03/14 03:57:08;;;;;;;1.77;0.90;;;21.50;45.20;;;;;;5031203;28;20502;-62
2021/03/14 03:59:37;;;;;;;1.50;0.80;;;21.50;45.20;;;;;;5029479;28;20115;-61
2021/03/14 04:02:04;;;;;;;1.87;0.80;;;21.50;45.20;;;;;;5022742;28;20045;-63
2021/03/14 04:04:36;;;;;;;1.55;0.80;;;21.50;45.20;;;;;;5029730;28;20750;-62
2021/03/14 04:07:02;;;;;;;2.03;0.80;;;21.40;45.20;;;;;;5029340;28;20049;-63
2021/03/14 04:09:29;;;;;;;1.80;0.80;;;21.40;45.20;;;;;;5030530;28;20326;-61
2021/03/14 04:11:56;;;;;;;1.55;0.80;;;21.40;45.20;;;;;;5027451;28;20069;-61
2021/03/14 04:14:23;;;;;;;1.48;0.80;;;21.40;45.20;;;;;;5028976;28;20649;-65
2021/03/14 04:16:50;;;;;;;1.65;0.80;;;21.40;45.20;;;;;;5028827;28;20135;-61
2021/03/14 04:19:20;;;;;;;1.98;0.90;;;21.40;45.20;;;;;;5020703;28;20065;-64
2021/03/14 04:21:47;;;;;;;1.65;0.80;;;21.40;45.20;;;;;;5030356;28;20468;-63
2021/03/14 04:24:15;;;;;;;0.90;0.60;;;21.40;45.20;;;;;;5024487;28;20795;-61
2021/03/14 04:26:43;;;;;;;1.90;0.90;;;21.40;45.20;;;;;;5022427;28;20477;-62
2021/03/14 04:29:10;;;;;;;2.58;0.77;;;21.40;45.20;;;;;;5017935;28;20112;-63
2021/03/14 04:31:48;;;;;;;1.23;0.73;;;21.40;45.70;;;;;;5026966;28;20038;-62
2021/03/14 04:34:17;;;;;;;1.65;0.70;;;21.40;45.20;;;;;;5028702;28;20030;-63
2021/03/14 04:36:45;;;;;;;2.13;0.77;;;21.30;45.20;;;;;;5030867;28;20037;-65
2021/03/14 04:39:11;;;;;;;2.28;0.60;;;21.40;45.20;;;;;;5028426;28;20029;-63
2021/03/14 04:41:38;;;;;;;1.33;0.70;;;21.30;45.20;;;;;;5030551;28;20048;-62
2021/03/14 04:44:06;;;;;;;1.90;0.88;;;21.30;45.20;;;;;;5016334;28;20049;-63
2021/03/14 04:46:32;;;;;;;2.42;0.93;;;21.30;45.20;;;;;;5027541;28;20059;-61
2021/03/14 04:48:58;;;;;;;1.50;0.77;;;21.30;45.20;;;;;;5029362;28;20479;-60
2021/03/14 04:51:26;;;;;;;1.02;0.63;;;21.30;45.20;;;;;;5029927;28;20056;-60
2021/03/14 04:53:53;;;;;;;1.42;0.80;;;21.30;45.20;;;;;;5029396;28;20112;-64
2021/03/14 04:56:21;;;;;;;1.42;0.70;;;21.30;45.70;;;;;;5029860;28;20037;-61
2021/03/14 04:58:49;;;;;;;1.40;0.80;;;21.30;45.20;;;;;;5029836;28;20033;-62
2021/03/14 05:01:18;;;;;;;1.02;0.60;;;21.30;45.20;;;;;;5020800;28;20081;-65
2021/03/14 05:03:45;;;;;;;1.47;0.80;;;21.30;45.20;;;;;;5027744;28;20049;-64
2021/03/14 05:06:16;;;;;;;1.20;0.60;;;21.20;45.10;;;;;;5029236;28;20040;-63
2021/03/14 05:08:43;;;;;;;1.50;1.00;;;21.20;45.10;;;;;;5029356;28;20032;-61
2021/03/14 05:11:09;;;;;;;1.33;0.80;;;21.30;45.20;;;;;;5029128;28;20029;-61
2021/03/14 05:13:37;;;;;;;1.02;0.70;;;21.20;45.10;;;;;;5029341;28;20130;-62
2021/03/14 05:16:03;;;;;;;1.63;0.60;;;21.20;45.10;;;;;;5043241;28;20215;-63
2021/03/14 05:18:29;;;;;;;2.28;0.90;;;21.30;45.20;;;;;;5024831;28;20117;-62
2021/03/14 05:20:55;;;;;;;1.42;0.70;;;21.20;45.10;;;;;;5024499;28;20140;-64
2021/03/14 05:23:21;;;;;;;1.13;0.63;;;21.20;45.10;;;;;;5027568;28;20038;-61
2021/03/14 05:25:49;;;;;;;1.52;0.80;;;21.20;45.10;;;;;;5028267;28;20479;-62
2021/03/14 05:28:18;;;;;;;0.80;0.60;;;21.20;45.10;;;;;;5028819;28;20017;-64
2021/03/14 05:30:43;;;;;;;1.13;0.57;;;21.20;45.20;;;;;;5028798;28;20021;-63
2021/03/14 05:33:09;;;;;;;1.55;0.60;;;21.20;45.10;;;;;;5028573;28;20721;-63
2021/03/14 05:35:35;;;;;;;0.88;0.60;;;21.20;45.70;;;;;;5027994;28;20025;-63
2021/03/14 05:38:01;;;;;;;1.08;0.70;;;21.20;45.10;;;;;;5025631;28;20178;-63
2021/03/14 05:40:28;;;;;;;1.17;0.70;;;21.20;45.10;;;;;;5023694;28;20068;-64
2021/03/14 05:42:58;;;;;;;1.63;0.70;;;21.20;45.10;;;;;;5026060;28;20047;-63
2021/03/14 05:45:25;;;;;;;1.25;0.68;;;21.10;45.00;;;;;;5025207;28;20041;-60
2021/03/14 05:47:51;;;;;;;1.27;0.70;;;21.10;45.10;;;;;;5026084;28;20069;-62
2021/03/14 05:50:23;;;;;;;1.48;0.70;;;21.20;45.10;;;;;;5027230;28;20060;-62
2021/03/14 05:52:49;;;;;;;1.45;0.70;;;21.10;45.10;;;;;;5027581;28;20029;-61
2021/03/14 05:55:18;;;;;;;0.82;0.57;;;21.20;45.10;;;;;;5024767;28;20025;-63
2021/03/14 05:57:44;;;;;;;1.35;0.60;;;21.10;45.10;;;;;;5021114;28;20037;-63
2021/03/14 06:00:15;;;;;;;2.70;0.75;;;21.10;45.10;;;;;;5023517;28;20361;-62
2021/03/14 06:02:41;;;;;;;1.13;0.60;;;21.10;45.10;;;;;;5018390;28;20100;-62
2021/03/14 06:05:08;;;;;;;0.68;0.50;;;21.10;45.10;;;;;;5036880;28;20033;-63
2021/03/14 06:07:34;;;;;;;0.70;0.60;;;21.10;45.10;;;;;;5023236;28;20025;-61
2021/03/14 06:10:00;;;;;;;1.23;0.70;;;21.10;45.10;;;;;;5010991;28;20121;-64
2021/03/14 06:12:25;;;;;;;0.80;0.65;;;21.10;45.10;;;;;;5023014;28;20250;-62
2021/03/14 06:14:51;;;;;;;1.35;0.70;;;21.10;45.10;;;;;;5025917;28;20088;-63
2021/03/14 06:17:17;;;;;;;1.60;0.60;;;21.10;45.10;;;;;;5024920;28;20048;-66
2021/03/14 06:19:48;;;;;;;1.70;0.70;;;21.10;45.20;;;;;;5023874;28;20083;-61
2021/03/14 06:22:22;;;;;;;1.00;0.60;;;21.10;45.20;;;;;;5024307;28;20556;-63
2021/03/14 06:24:50;;;;;;;0.77;0.55;;;21.10;45.20;;;;;;5025239;28;20184;-61
2021/03/14 06:27:51;;;;;;;1.92;0.60;;;21.10;45.20;;;;;;5024681;28;20179;-61
2021/03/14 06:30:17;;;;;;;1.40;0.70;;;21.10;45.20;;;;;;5019625;28;20510;-64
2021/03/14 06:33:00;;;;;;;0.40;0.40;;;21.00;45.40;;;;;;5024061;28;20049;-61
2021/03/14 06:35:35;;;;;;;1.00;0.60;;;21.00;45.20;;;;;;5023622;28;20038;-65
2021/03/14 06:38:19;;;;;;;0.82;0.55;;;21.00;45.10;;;;;;5018864;28;20783;-63
2021/03/14 06:40:50;;;;;;;1.63;0.98;;;21.00;45.20;;;;;;5026298;28;20456;-61
2021/03/14 06:43:16;;;;;;;0.95;0.60;;;21.00;45.20;;;;;;5024969;28;20114;-64
2021/03/14 06:45:43;;;;;;;0.90;0.50;;;21.00;45.20;;;;;;5024965;28;20494;-63
2021/03/14 06:48:10;;;;;;;0.90;0.40;;;21.00;45.10;;;;;;5025105;28;20053;-64
2021/03/14 06:50:42;;;;;;;0.75;0.50;;;21.00;45.20;;;;;;5023408;28;20135;-65
2021/03/14 06:53:17;;;;;;;0.98;0.55;;;21.00;45.20;;;;;;5021591;28;20052;-62
2021/03/14 06:55:46;;;;;;;0.68;0.50;;;21.00;45.20;;;;;;5019599;28;20434;-61
2021/03/14 06:58:21;;;;;;;1.27;0.75;;;21.00;45.10;;;;;;5022033;28;20033;-63
2021/03/14 07:01:13;;;;;;;1.17;0.70;;;21.00;45.20;;;;;;5021733;28;20167;-62
2021/03/14 07:03:41;;;;;;;0.93;0.50;;;21.00;45.20;;;;;;5024315;28;20368;-62
2021/03/14 07:06:13;;;;;;;1.23;0.50;;;21.00;45.20;;;;;;5024657;28;20037;-61
2021/03/14 07:08:39;;;;;;;0.73;0.45;;;21.00;45.20;;;;;;5024556;28;20034;-63
2021/03/14 07:11:05;;;;;;;0.95;0.60;;;21.00;45.20;;;;;;5025498;28;20044;-62
2021/03/14 07:13:30;;;;;;;1.15;0.60;;;21.00;45.20;;;;;;5024515;28;20124;-64
2021/03/14 07:15:58;;;;;;;0.52;0.50;;;21.00;45.20;;;;;;5026507;28;20040;-61
2021/03/14 07:18:25;;;;;;;1.63;0.63;;;21.00;45.20;;;;;;5025503;28;20038;-60
2021/03/14 07:20:51;;;;;;;0.75;0.60;;;21.00;45.20;;;;;;5026202;28;20044;-62
2021/03/14 07:23:17;;;;;;;1.38;0.75;;;21.00;45.30;;;;;;5027579;28;20021;-62
2021/03/14 07:25:45;;;;;;;0.98;0.50;;;21.00;45.30;;;;;;5026986;28;20060;-61
2021/03/14 07:28:14;;;;;;;1.38;0.63;;;20.90;45.30;;;;;;5027140;28;20584;-63
2021/03/14 07:30:40;;;;;;;0.98;0.50;;;20.90;45.30;;;;;;5024939;28;20030;-61
2021/03/14 07:33:06;;;;;;;1.08;0.50;;;20.90;45.40;;;;;;5026706;28;20029;-64
2021/03/14 07:35:31;;;;;;;1.23;0.60;;;20.90;45.40;;;;;;5025769;28;20588;-63
2021/03/14 07:37:58;;;;;;;0.88;0.55;;;20.90;45.40;;;;;;5026851;28;20048;-61
2021/03/14 07:40:26;;;;;;;1.95;0.60;;;20.90;45.40;;;;;;5025612;28;20026;-61
2021/03/14 07:42:57;;;;;;;2.40;0.63;;;20.90;45.50;;;;;;5025947;28;20479;-63
2021/03/14 07:45:23;;;;;;;1.00;0.50;;;20.90;45.50;;;;;;5025909;28;20029;-62
2021/03/14 07:47:50;;;;;;;0.93;0.60;;;20.90;45.50;;;;;;5026049;28;20529;-61
2021/03/14 07:50:20;;;;;;;0.75;0.55;;;20.90;45.50;;;;;;5027246;28;20464;-62
2021/03/14 07:52:48;;;;;;;1.52;0.50;;;20.90;45.40;;;;;;5027100;28;20033;-62
2021/03/14 07:55:18;;;;;;;0.90;0.50;;;20.90;45.50;;;;;;5026645;28;20026;-61
2021/03/14 07:57:45;;;;;;;0.88;0.60;;;20.90;45.50;;;;;;5027392;28;20104;-60
2021/03/14 08:00:24;;;;;;;1.88;0.80;;;20.90;45.50;;;;;;5009200;28;20026;-63
2021/03/14 08:02:57;;;;;;;1.25;0.68;;;20.90;45.60;;;;;;5016892;28;20024;-64
2021/03/14 08:05:38;;;;;;;0.88;0.50;;;20.90;45.50;;;;;;5023796;28;20037;-60
2021/03/14 08:08:05;;;;;;;0.95;0.60;;;20.90;45.50;;;;;;5023748;28;20037;-61
2021/03/14 08:10:40;;;;;;;1.58;0.60;;;20.90;45.50;;;;;;5026854;28;20155;-60
2021/03/14 08:13:07;;;;;;;1.27;0.60;;;20.90;45.50;;;;;;5030305;28;20029;-62
2021/03/14 08:15:34;;;;;;;1.05;0.60;;;20.90;45.50;;;;;;5027936;28;20025;-63
2021/03/14 08:18:02;;;;;;;1.52;0.90;;;20.90;45.60;;;;;;5027560;28;20422;-62
2021/03/14 08:20:47;;;;;;;1.27;0.60;;;20.90;45.50;;;;;;5044819;28;20116;-60
2021/03/14 08:23:17;;;;;;;0.55;0.50;;;20.80;45.50;;;;;;5052502;28;20048;-61
2021/03/14 08:25:47;;;;;;;1.40;0.70;;;20.80;45.50;;;;;;5022228;28;20393;-61
2021/03/14 08:28:33;;;;;;;1.25;0.60;;;20.80;45.60;;;;;;5030043;28;20111;-61
2021/03/14 08:31:04;;;;;;;1.45;0.60;;;20.80;45.80;;;;;;5023202;28;20047;-64
2021/03/14 08:33:46;;;;;;;1.70;0.60;;;20.80;46.20;;;;;;5023789;28;20480;-61
2021/03/14 08:36:29;;;;;;;2.42;0.70;;;20.90;46.00;;;;;;5029879;28;20031;-60
2021/03/14 08:38:55;;;;;;;1.48;0.70;;;20.90;46.30;;;;;;5028736;28;20062;-62
2021/03/14 08:41:35;;;;;;;1.83;0.65;;;20.90;46.20;;;;;;5029510;28;20342;-62
2021/03/14 08:44:12;;;;;;;1.38;0.70;;;21.00;46.50;;;;;;5024341;28;20035;-61
2021/03/14 08:46:50;;;;;;;2.83;0.93;;;21.00;46.60;;;;;;5023601;28;20037;-62
2021/03/14 08:49:20;;;;;;;1.40;0.57;;;21.10;46.40;;;;;;5022193;28;20140;-64
2021/03/14 08:51:47;;;;;;;1.67;0.60;;;21.10;46.30;;;;;;5030076;28;20053;-63
2021/03/14 08:54:13;;;;;;;1.25;0.70;;;21.10;46.30;;;;;;5028675;28;20029;-61
2021/03/14 08:56:39;;;;;;;0.52;0.50;;;21.20;46.30;;;;;;5029845;28;20067;-61
2021/03/14 08:59:12;;;;;;;1.08;0.60;;;21.20;46.30;;;;;;5027968;28;20053;-62
2021/03/14 09:01:39;;;;;;;0.90;0.63;;;21.10;46.20;;;;;;5026803;28;20116;-60
2021/03/14 09:04:13;;;;;;;2.90;0.80;;;21.10;46.20;;;;;;5023493;28;20120;-62
2021/03/14 09:06:38;;;;;;;1.20;0.70;;;21.10;46.20;;;;;;5026097;28;20029;-60
2021/03/14 09:09:07;;;;;;;0.88;0.50;;;21.10;46.20;;;;;;5027808;28;20103;-60
2021/03/14 09:11:42;;;;;;;1.33;0.68;;;21.10;46.30;;;;;;5023774;28;20384;-61
2021/03/14 09:14:29;;;;;;;0.82;0.52;;;21.10;46.30;;;;;;5028577;28;20032;-62
2021/03/14 09:16:56;;;;;;;1.80;0.65;;;21.10;46.30;;;;;;5029792;28;20037;-62
2021/03/14 09:19:26;;;;;;;2.60;0.80;;;21.10;46.40;;;;;;5016662;28;20033;-62
2021/03/14 09:21:53;;;;;;;1.67;1.05;;;21.10;46.40;;;;;;5024935;28;20064;-62
2021/03/14 09:25:08;;;;;;;1.45;0.70;;;21.10;46.40;;;;;;5027794;28;20040;-63
2021/03/14 09:27:39;;;;;;;1.50;0.70;;;21.10;46.60;;;;;;4966833;28;20414;-60
2021/03/14 09:30:10;;;;;;;1.48;0.75;;;21.10;46.70;;;;;;5016969;28;20167;-61
2021/03/14 09:32:36;;;;;;;1.48;0.70;;;21.10;46.70;;;;;;5026204;28;20033;-62
2021/03/14 09:35:09;;;;;;;1.10;0.70;;;21.10;47.00;;;;;;5026689;28;20032;-61
2021/03/14 09:37:35;;;;;;;0.82;0.60;;;21.10;47.30;;;;;;5026414;28;20014;-60
2021/03/14 09:40:22;;;;;;;1.92;0.90;;;21.10;47.60;;;;;;5027465;28;20032;-60
2021/03/14 09:42:51;;;;;;;1.30;0.70;;;21.10;47.70;;;;;;5027169;28;20484;-62
2021/03/14 09:45:22;;;;;;;3.93;0.70;;;21.10;47.70;;;;;;5019895;28;20481;-63
2021/03/14 09:48:03;;;;;;;1.58;0.90;;;21.20;47.50;;;;;;5022311;28;20373;-62
2021/03/14 09:50:54;;;;;;;1.65;0.60;;;21.10;48.40;;;;;;5028017;28;20519;-62
2021/03/14 09:53:25;;;;;;;2.17;0.70;;;21.10;48.40;;;;;;5012124;28;20046;-63
2021/03/14 09:55:53;;;;;;;2.65;0.80;;;21.20;48.90;;;;;;5020519;28;20033;-61
2021/03/14 09:58:21;;;;;;;2.08;0.90;;;21.10;49.20;;;;;;5023989;28;20042;-59
2021/03/14 10:00:49;;;;;;;1.60;0.70;;;21.20;49.70;;;;;;5020844;28;20042;-59
2021/03/14 10:03:21;;;;;;;2.72;0.80;;;21.20;49.40;;;;;;5005240;28;20890;-66
2021/03/14 10:05:48;;;;;;;2.00;0.70;;;21.20;49.40;;;;;;5024965;28;20041;-65
2021/03/14 10:08:19;;;;;;;1.77;0.70;;;21.20;49.10;;;;;;5024443;28;20029;-64
2021/03/14 10:10:46;;;;;;;1.27;0.63;;;21.20;48.70;;;;;;5022670;28;20041;-65
2021/03/14 10:13:12;;;;;;;1.83;0.90;;;21.20;48.40;;;;;;5024889;28;20183;-67
2021/03/14 10:15:40;;;;;;;1.60;0.70;;;21.10;48.30;;;;;;5019535;28;20809;-64
2021/03/14 10:18:07;;;;;;;0.95;0.60;;;21.10;48.10;;;;;;5017862;28;20037;-66
2021/03/14 10:20:34;;;;;;;5.60;0.80;;;21.10;48.00;;;;;;5032016;28;20112;-67
2021/03/14 10:23:01;;;;;;;1.85;0.70;;;21.10;48.00;;;;;;5023587;28;20555;-66
2021/03/14 10:25:29;;;;;;;1.58;0.68;;;21.10;47.90;;;;;;5023942;28;20029;-67
2021/03/14 10:28:15;;;;;;;2.10;0.80;;;21.10;47.80;;;;;;5022588;28;20055;-68
2021/03/14 10:30:43;;;;;;;1.92;0.70;;;21.10;47.70;;;;;;5022605;28;20038;-64
2021/03/14 10:33:12;;;;;;;1.00;0.60;;;21.10;47.50;;;;;;5024535;28;20030;-67
2021/03/14 10:35:39;;;;;;;0.95;0.60;;;21.10;47.50;;;;;;5024842;28;20108;-65
2021/03/14 10:38:19;;;;;;;1.92;0.70;;;21.10;47.40;;;;;;5020394;28;20065;-61
2021/03/14 10:40:46;;;;;;;3.00;0.95;;;21.10;48.00;;;;;;5037341;28;20120;-59
2021/03/14 10:43:20;;;;;;;2.33;0.80;;;21.20;48.80;;;;;;5021049;28;20096;-62
2021/03/14 10:45:46;;;;;;;1.90;0.80;;;21.40;48.50;;;;;;5020323;28;20468;-60
2021/03/14 10:48:15;;;;;;;3.20;0.65;;;21.50;48.20;;;;;;5019402;28;20025;-60
2021/03/14 10:50:41;;;;;;;1.65;0.77;;;21.50;48.00;;;;;;5012171;28;20651;-61
2021/03/14 10:53:17;;;;;;;2.08;0.80;;;21.50;47.90;;;;;;5018965;28;20038;-62
2021/03/14 10:55:44;;;;;;;2.85;1.00;;;21.50;48.40;;;;;;5039186;28;20032;-60
2021/03/14 10:58:11;;;;;;;3.15;0.75;;;21.60;48.40;;;;;;5024542;28;20865;-62
2021/03/14 11:00:42;;;;;;;2.25;0.80;;;21.60;47.80;;;;;;5020695;28;20469;-60
2021/03/14 11:03:13;;;;;;;3.22;0.80;;;21.60;47.70;;;;;;5004284;28;20026;-60
2021/03/14 11:05:42;;;;;;;2.33;0.80;;;21.70;47.70;;;;;;5017333;28;20773;-60
2021/03/14 11:08:08;;;;;;;1.73;0.88;;;21.70;47.60;;;;;;5024413;28;20038;-57
2021/03/14 11:10:34;;;;;;;2.65;0.90;;;21.70;47.80;;;;;;5022450;28;20123;-56
2021/03/14 11:13:13;;;;;;;2.05;0.90;;;21.80;48.00;;;;;;5023774;28;20041;-60
2021/03/14 11:15:39;;;;;;;1.88;0.70;;;22.00;47.40;;;;;;5020354;28;20026;-63
2021/03/14 11:18:05;;;;;;;1.40;0.80;;;22.00;47.20;;;;;;5022167;28;20060;-62
2021/03/14 11:20:32;;;;;;;1.65;0.80;;;22.00;47.10;;;;;;5022572;28;20112;-62
2021/03/14 11:22:59;;;;;;;2.55;0.85;;;22.00;47.10;;;;;;5021095;28;20037;-58
2021/03/14 11:25:26;;;;;;;1.55;0.60;;;22.00;47.10;;;;;;5023011;28;20096;-59
2021/03/14 11:27:52;;;;;;;1.38;0.60;;;22.10;47.10;;;;;;5023578;28;20049;-60
2021/03/14 11:30:20;;;;;;;1.95;0.70;;;22.10;47.00;;;;;;5022109;28;20041;-62
2021/03/14 11:32:45;;;;;;;1.45;0.65;;;22.10;46.90;;;;;;5021241;28;20600;-59
2021/03/14 11:35:11;;;;;;;1.25;0.60;;;22.10;46.90;;;;;;5020951;28;20060;-56
2021/03/14 11:37:38;;;;;;;4.20;0.98;;;22.10;46.80;;;;;;5022779;28;20049;-57
2021/03/14 11:40:06;;;;;;;2.22;0.80;;;22.20;46.80;;;;;;5022861;28;20151;-56
2021/03/14 11:42:32;;;;;;;2.25;0.82;;;22.20;46.70;;;;;;5024960;28;20033;-59
2021/03/14 11:44:58;;;;;;;2.95;0.90;;;22.20;46.70;;;;;;5026097;28;20025;-61
2021/03/14 11:47:24;;;;;;;1.27;0.70;;;22.20;46.60;;;;;;5022068;28;20124;-60
2021/03/14 11:49:50;;;;;;;1.13;0.70;;;22.20;46.70;;;;;;5026879;28;20132;-60
2021/03/14 11:52:16;;;;;;;1.20;0.52;;;22.30;46.70;;;;;;5023016;28;20109;-62
2021/03/14 11:54:42;;;;;;;1.67;0.70;;;22.30;46.70;;;;;;5025055;28;20071;-60
2021/03/14 11:57:08;;;;;;;1.90;0.70;;;22.30;46.60;;;;;;5027208;28;20841;-61
2021/03/14 11:59:33;;;;;;;1.95;0.65;;;22.30;46.50;;;;;;5027197;28;20087;-62
2021/03/14 12:01:59;;;;;;;1.67;0.70;;;22.30;46.50;;;;;;5024105;28;20053;-62
2021/03/14 12:04:25;;;;;;;1.02;0.60;;;22.30;46.50;;;;;;5025715;28;20034;-61
2021/03/14 12:06:51;;;;;;;1.73;0.80;;;22.30;46.40;;;;;;5025056;28;20121;-61
2021/03/14 12:09:16;;;;;;;0.82;0.45;;;22.30;46.30;;;;;;5027188;28;20442;-62
2021/03/14 12:11:43;;;;;;;1.80;0.60;;;22.30;46.30;;;;;;5025616;28;20033;-62
2021/03/14 12:14:09;;;;;;;2.33;0.63;;;22.30;46.30;;;;;;5023649;28;20076;-61
2021/03/14 12:16:35;;;;;;;1.98;0.70;;;22.30;46.30;;;;;;5025125;28;20037;-62
2021/03/14 12:19:01;;;;;;;1.88;0.60;;;22.30;46.30;;;;;;5025384;28;20104;-61
2021/03/14 12:21:27;;;;;;;0.65;0.55;;;22.40;46.30;;;;;;5026124;28;20101;-59
2021/03/14 12:23:53;;;;;;;1.23;0.63;;;22.40;46.20;;;;;;5022724;28;20506;-59
2021/03/14 12:26:20;;;;;;;3.03;0.70;;;22.40;46.20;;;;;;5025579;28;20033;-61
2021/03/14 12:28:46;;;;;;;3.17;0.70;;;22.40;46.20;;;;;;5024352;28;20029;-63
2021/03/14 12:31:11;;;;;;;2.22;0.60;;;22.40;46.20;;;;;;5023129;28;20076;-61
2021/03/14 12:33:37;;;;;;;1.25;0.60;;;22.40;46.10;;;;;;5024642;28;20037;-62
2021/03/14 12:36:03;;;;;;;1.42;0.50;;;22.40;46.00;;;;;;5024309;28;20069;-61
2021/03/14 12:38:29;;;;;;;1.73;0.75;;;22.40;46.00;;;;;;5027910;28;20029;-64
2021/03/14 12:40:54;;;;;;;1.90;0.60;;;22.50;46.10;;;;;;5026588;28;20039;-70
2021/03/14 12:43:21;;;;;;;2.03;0.60;;;22.50;46.10;;;;;;5027286;28;20381;-57
2021/03/14 12:45:49;;;;;;;2.30;0.70;;;22.50;46.50;;;;;;5024213;28;20060;-61
2021/03/14 12:48:16;;;;;;;1.50;0.60;;;22.60;46.10;;;;;;5024246;28;20022;-59
2021/03/14 12:50:42;;;;;;;3.65;0.70;;;22.60;45.90;;;;;;5020027;28;20033;-60
2021/03/14 12:53:08;;;;;;;1.20;0.52;;;22.60;45.90;;;;;;5022243;28;20028;-59
2021/03/14 12:55:34;;;;;;;1.15;0.55;;;22.60;45.80;;;;;;5025468;28;20026;-60